Time;durP1;ratioP1;P1;durP2;ratioP2;P2;SDS_P1;SDS_P2;PMS_P1;PMS_P2;Temp;Humidity;BMP_temperature;BMP_pressure;BME280_temperature;BME280_humidity;BME280_pressure;Samples;Min_cycle;Max_cycle;Signal;HPM_P1;HPM_P2
2021/09/28 00:01:46;;;;;;;51.00;34.63;;;;;;;15.71;100.00;101043.91;2615944;36;20578;-54
2021/09/28 00:04:14;;;;;;;51.10;33.97;;;;;;;15.65;100.00;101043.84;2616472;31;20026;-56
2021/09/28 00:06:41;;;;;;;57.35;37.65;;;;;;;15.65;100.00;101049.00;2615610;36;20038;-53
2021/09/28 00:09:08;;;;;;;56.30;37.47;;;;;;;15.64;100.00;101051.59;2616588;31;20027;-54
2021/09/28 00:11:35;;;;;;;54.30;37.42;;;;;;;15.57;100.00;101050.59;2616606;31;20034;-56
2021/09/28 00:14:02;;;;;;;59.22;39.20;;;;;;;15.58;100.00;101048.91;2616508;31;20030;-57
2021/09/28 00:16:30;;;;;;;60.30;39.17;;;;;;;15.57;100.00;101057.50;2616154;31;20057;-58
2021/09/28 00:18:58;;;;;;;64.35;39.90;;;;;;;15.62;100.00;101051.53;2615954;36;20566;-55
2021/09/28 00:21:26;;;;;;;57.22;38.20;;;;;;;15.63;100.00;101048.09;2615697;36;20475;-55
2021/09/28 00:23:53;;;;;;;62.65;39.10;;;;;;;15.63;100.00;101062.75;2616248;31;20046;-56
2021/09/28 00:26:20;;;;;;;60.53;39.20;;;;;;;15.60;100.00;101058.41;2616168;31;20600;-54
2021/09/28 00:28:48;;;;;;;60.45;39.10;;;;;;;15.59;100.00;101056.66;2615851;36;20034;-53
2021/09/28 00:31:15;;;;;;;58.80;38.15;;;;;;;15.54;100.00;101061.78;2615808;36;20034;-55
2021/09/28 00:33:42;;;;;;;62.22;39.05;;;;;;;15.54;100.00;101071.25;2616901;36;20030;-57
2021/09/28 00:36:09;;;;;;;68.88;39.63;;;;;;;15.57;100.00;101073.84;2616415;36;20057;-57
2021/09/28 00:38:37;;;;;;;63.90;39.78;;;;;;;15.53;100.00;101070.38;2616402;31;20046;-53
2021/09/28 00:41:04;;;;;;;66.93;39.95;;;;;;;15.48;100.00;101068.56;2616060;31;20053;-57
2021/09/28 00:43:53;;;;;;;65.20;40.10;;;;;;;15.49;100.00;101078.94;2615767;36;20023;-56
2021/09/28 00:46:24;;;;;;;66.15;40.42;;;;;;;15.47;100.00;101080.59;2579678;36;2004424;-58
2021/09/28 00:48:52;;;;;;;65.07;40.95;;;;;;;15.48;100.00;101082.38;2616289;31;20031;-57
2021/09/28 00:51:20;;;;;;;68.60;41.97;;;;;;;15.50;100.00;101083.25;2615808;36;20035;-54
2021/09/28 00:53:51;;;;;;;70.50;41.42;;;;;;;15.50;100.00;101074.63;2616462;36;20031;-55
2021/09/28 00:56:20;;;;;;;67.45;41.25;;;;;;;15.51;100.00;101081.53;2616407;31;20544;-59
2021/09/28 00:58:48;;;;;;;69.10;40.70;;;;;;;15.54;100.00;101079.84;2616157;31;20034;-53
2021/09/28 01:01:15;;;;;;;68.15;40.70;;;;;;;15.56;100.00;101084.16;2616264;31;20026;-56
2021/09/28 01:03:43;;;;;;;70.88;42.50;;;;;;;15.58;100.00;101087.63;2615310;36;20034;-54
2021/09/28 01:06:11;;;;;;;74.38;43.10;;;;;;;15.60;100.00;101085.94;2616196;31;20037;-53
2021/09/28 01:08:38;;;;;;;72.40;43.58;;;;;;;15.61;100.00;101098.84;2615808;36;20459;-56
2021/09/28 01:11:05;;;;;;;71.20;42.13;;;;;;;15.59;100.00;101091.94;2616733;31;20038;-54
2021/09/28 01:13:32;;;;;;;71.03;42.78;;;;;;;15.57;100.00;101085.88;2615947;31;20037;-54
2021/09/28 01:15:59;;;;;;;67.10;41.65;;;;;;;15.59;100.00;101081.63;2615855;31;20054;-55
2021/09/28 01:18:31;;;;;;;69.20;42.72;;;;;;;15.59;100.00;101081.63;2615889;31;20030;-54
2021/09/28 01:20:59;;;;;;;65.53;39.90;;;;;;;15.61;100.00;101087.66;2615785;36;20517;-56
2021/09/28 01:23:27;;;;;;;68.18;41.95;;;;;;;15.58;100.00;101082.47;2615783;36;20065;-55
2021/09/28 01:25:54;;;;;;;64.45;40.60;;;;;;;15.60;100.00;101081.63;2615551;36;20037;-57
2021/09/28 01:28:22;;;;;;;61.65;39.33;;;;;;;15.60;100.00;101085.94;2615263;36;20030;-57
2021/09/28 01:30:50;;;;;;;63.55;39.28;;;;;;;15.60;100.00;101086.78;2615239;36;20034;-60
2021/09/28 01:33:17;;;;;;;65.43;39.65;;;;;;;15.60;100.00;101091.09;2615518;36;20030;-55
2021/09/28 01:35:44;;;;;;;60.88;38.15;;;;;;;15.59;100.00;101092.81;2616230;31;20035;-56
2021/09/28 01:38:11;;;;;;;59.97;38.85;;;;;;;15.60;100.00;101089.38;2615133;36;20022;-56
2021/09/28 01:40:38;;;;;;;59.78;38.22;;;;;;;15.63;100.00;101091.13;2616479;31;20034;-52
2021/09/28 01:43:10;;;;;;;57.50;36.08;;;;;;;15.73;100.00;101087.84;2616140;31;20053;-56
2021/09/28 01:45:39;;;;;;;57.50;37.67;;;;;;;15.76;100.00;101093.91;2615315;36;20026;-56
2021/09/28 01:48:06;;;;;;;53.80;35.88;;;;;;;15.78;100.00;101096.50;2615908;31;20069;-56
2021/09/28 01:50:34;;;;;;;54.72;36.17;;;;;;;15.83;100.00;101096.53;2615563;36;20029;-57
2021/09/28 01:53:03;;;;;;;57.50;37.20;;;;;;;15.86;100.00;101094.88;2616052;31;20073;-54
2021/09/28 01:55:30;;;;;;;52.22;34.50;;;;;;;15.89;100.00;101091.44;2616804;31;20190;-58
2021/09/28 01:57:59;;;;;;;52.92;36.08;;;;;;;15.92;100.00;101094.06;2615434;36;20038;-56
2021/09/28 02:00:27;;;;;;;49.00;34.92;;;;;;;15.94;100.00;101094.94;2616244;31;20022;-52
2021/09/28 02:02:54;;;;;;;48.63;32.85;;;;;;;15.93;100.00;101094.06;2615571;36;20057;-56
2021/09/28 02:05:22;;;;;;;50.00;33.40;;;;;;;15.95;100.00;101105.28;2615389;36;20041;-50
2021/09/28 02:07:49;;;;;;;49.60;33.50;;;;;;;15.95;100.00;101099.28;2615119;36;20573;-52
2021/09/28 02:10:17;;;;;;;46.28;32.35;;;;;;;15.92;100.00;101097.50;2616656;31;20050;-47
2021/09/28 02:12:45;;;;;;;46.95;32.75;;;;;;;15.91;100.00;101102.66;2616687;31;20031;-50
2021/09/28 02:15:12;;;;;;;46.72;31.30;;;;;;;15.89;100.00;101104.34;2615226;36;20038;-48
2021/09/28 02:17:40;;;;;;;45.60;32.45;;;;;;;15.87;100.00;101106.06;2615846;36;21078;-53
2021/09/28 02:20:08;;;;;;;42.90;31.05;;;;;;;15.85;100.00;101100.84;2615500;36;20034;-54
2021/09/28 02:22:37;;;;;;;42.00;29.25;;;;;;;15.85;100.00;101094.81;2615386;36;20415;-52
2021/09/28 02:25:07;;;;;;;39.42;29.35;;;;;;;15.85;100.00;101103.44;2615301;36;20030;-50
2021/09/28 02:27:35;;;;;;;38.97;29.35;;;;;;;15.87;100.00;101103.47;2615452;36;20027;-51
2021/09/28 02:30:04;;;;;;;41.55;28.58;;;;;;;15.86;100.00;101104.34;2616167;31;20574;-53
2021/09/28 02:32:31;;;;;;;36.13;27.02;;;;;;;15.85;100.00;101108.59;2615844;31;20556;-50
2021/09/28 02:34:59;;;;;;;42.72;27.55;;;;;;;15.85;100.00;101110.31;2615683;31;20039;-49
2021/09/28 02:37:27;;;;;;;37.00;26.33;;;;;;;15.84;100.00;101114.63;2615840;31;20030;-50
2021/09/28 02:39:54;;;;;;;37.97;28.10;;;;;;;15.85;100.00;101116.34;2616878;31;20030;-51
2021/09/28 02:42:21;;;;;;;35.22;26.02;;;;;;;15.85;100.00;101115.50;2616271;31;20617;-49
2021/09/28 02:44:51;;;;;;;34.60;25.38;;;;;;;15.85;100.00;101100.00;2615570;36;20031;-48
2021/09/28 02:47:19;;;;;;;32.83;23.38;;;;;;;15.86;100.00;101104.34;2616597;31;20597;-52
2021/09/28 02:49:46;;;;;;;33.72;23.33;;;;;;;15.88;100.00;101103.47;2615777;36;20030;-52
2021/09/28 02:52:13;;;;;;;33.45;23.15;;;;;;;15.93;100.00;101099.22;2615646;36;20031;-49
2021/09/28 02:54:40;;;;;;;30.33;21.83;;;;;;;15.91;100.00;101102.66;2615285;36;20577;-53
2021/09/28 02:57:08;;;;;;;32.75;21.30;;;;;;;15.91;100.00;101107.84;2615943;31;20035;-52
2021/09/28 02:59:35;;;;;;;28.35;20.70;;;;;;;15.90;100.00;101112.13;2616375;31;20035;-50
2021/09/28 03:02:03;;;;;;;28.80;20.38;;;;;;;15.91;100.00;101107.84;2615649;36;20050;-52
2021/09/28 03:04:30;;;;;;;31.13;20.88;;;;;;;15.91;100.00;101111.28;2615521;36;20019;-48
2021/09/28 03:06:57;;;;;;;27.17;20.27;;;;;;;15.92;100.00;101105.25;2615264;36;20030;-54
2021/09/28 03:09:24;;;;;;;28.13;20.35;;;;;;;15.92;100.00;101105.25;2616893;31;20061;-52
2021/09/28 03:11:52;;;;;;;29.65;21.75;;;;;;;15.93;100.00;101108.69;2615511;36;20039;-53
2021/09/28 03:14:19;;;;;;;32.85;20.20;;;;;;;15.92;100.00;101107.84;2615610;36;20449;-54
2021/09/28 03:16:47;;;;;;;24.92;19.13;;;;;;;15.91;100.00;101110.41;2615453;36;20562;-51
2021/09/28 03:19:16;;;;;;;25.30;19.52;;;;;;;15.92;100.00;101120.75;2615350;36;20026;-50
2021/09/28 03:21:44;;;;;;;28.20;18.95;;;;;;;15.92;100.00;101118.16;2615564;36;20027;-51
2021/09/28 03:24:11;;;;;;;27.80;19.45;;;;;;;15.94;100.00;101126.78;2615523;31;20034;-49
2021/09/28 03:26:38;;;;;;;25.45;19.05;;;;;;;15.96;100.00;101132.84;2614812;36;20034;-53
2021/09/28 03:29:05;;;;;;;25.23;19.50;;;;;;;15.96;100.00;101132.84;2615435;31;20037;-55
2021/09/28 03:31:33;;;;;;;25.80;19.63;;;;;;;15.97;100.00;101128.53;2614910;36;20031;-49
2021/09/28 03:34:00;;;;;;;26.63;19.95;;;;;;;15.96;100.00;101126.81;2615092;36;20104;-51
2021/09/28 03:36:27;;;;;;;23.60;18.40;;;;;;;15.96;100.00;101139.75;2615325;31;20031;-49
2021/09/28 03:38:54;;;;;;;25.15;19.20;;;;;;;15.94;100.00;101142.28;2615069;31;20053;-50
2021/09/28 03:41:21;;;;;;;21.40;17.67;;;;;;;15.92;100.00;101135.38;2615896;31;20030;-47
2021/09/28 03:43:48;;;;;;;24.88;18.85;;;;;;;15.90;100.00;101131.91;2615613;36;20058;-49
2021/09/28 03:46:16;;;;;;;26.20;18.50;;;;;;;15.89;100.00;101132.75;2615720;36;20063;-51
2021/09/28 03:48:43;;;;;;;23.73;18.48;;;;;;;15.86;100.00;101138.78;2616490;31;20162;-51
2021/09/28 03:51:12;;;;;;;22.65;17.42;;;;;;;15.86;100.00;101148.25;2615986;31;20030;-51
2021/09/28 03:53:39;;;;;;;24.00;18.20;;;;;;;15.84;100.00;101142.19;2616360;31;20050;-49
2021/09/28 03:56:06;;;;;;;25.35;17.58;;;;;;;15.84;100.00;101155.94;2615247;36;20034;-49
2021/09/28 03:58:34;;;;;;;22.40;17.00;;;;;;;15.85;100.00;101144.75;2616003;36;20469;-55
2021/09/28 04:01:01;;;;;;;32.50;18.50;;;;;;;15.85;100.00;101149.06;2615359;36;20031;-53
2021/09/28 04:03:28;;;;;;;29.33;19.13;;;;;;;15.82;100.00;101147.34;2615882;36;20122;-53
2021/09/28 04:05:55;;;;;;;21.83;17.27;;;;;;;15.82;100.00;101155.06;2617568;31;20030;-49
2021/09/28 04:08:23;;;;;;;23.90;17.67;;;;;;;15.78;100.00;101150.72;2615678;31;20023;-51
2021/09/28 04:11:03;;;;;;;23.65;17.67;;;;;;;15.75;100.00;101154.13;2615172;36;20039;-53
2021/09/28 04:13:39;;;;;;;22.63;17.25;;;;;;;15.73;100.00;101158.41;2579764;31;2004208;-57
2021/09/28 04:16:10;;;;;;;22.83;16.90;;;;;;;15.72;100.00;101161.00;2616082;36;20503;-55
2021/09/28 04:18:38;;;;;;;22.85;16.98;;;;;;;15.70;100.00;101165.25;2616526;31;20121;-53
2021/09/28 04:21:07;;;;;;;21.77;17.38;;;;;;;15.70;100.00;101163.53;2615962;36;20487;-52
2021/09/28 04:23:34;;;;;;;22.20;16.92;;;;;;;15.68;100.00;101165.25;2614595;36;20100;-53
2021/09/28 04:26:02;;;;;;;22.63;16.52;;;;;;;15.67;100.00;101178.16;2617259;31;20030;-50
2021/09/28 04:28:30;;;;;;;20.23;16.08;;;;;;;15.65;100.00;101175.53;2615996;36;20350;-57
2021/09/28 04:30:58;;;;;;;21.63;15.88;;;;;;;15.65;100.00;101177.25;2616118;31;20042;-51
2021/09/28 04:33:25;;;;;;;23.73;15.80;;;;;;;15.63;100.00;101174.63;2616320;31;20027;-52
2021/09/28 04:35:52;;;;;;;21.40;16.13;;;;;;;15.63;100.00;101172.03;2616869;31;20062;-52
2021/09/28 04:38:19;;;;;;;21.25;15.80;;;;;;;15.63;100.00;101174.63;2615574;36;20110;-51
2021/09/28 04:40:47;;;;;;;21.30;15.10;;;;;;;15.62;100.00;101184.91;2615531;36;20038;-52
2021/09/28 04:43:14;;;;;;;24.95;15.77;;;;;;;15.60;100.00;101178.88;2616186;31;20039;-51
2021/09/28 04:45:41;;;;;;;17.52;14.43;;;;;;;15.57;100.00;101181.41;2616271;31;20485;-51
2021/09/28 04:48:08;;;;;;;19.35;14.00;;;;;;;15.56;100.00;101182.25;2615207;31;20042;-51
2021/09/28 04:50:36;;;;;;;20.08;13.15;;;;;;;15.53;100.00;101193.41;2614618;31;20491;-50
2021/09/28 04:53:03;;;;;;;17.88;13.48;;;;;;;15.52;100.00;101195.09;2614980;36;20040;-51
2021/09/28 04:55:30;;;;;;;18.52;12.75;;;;;;;15.51;100.00;101193.38;2613738;36;20027;-50
2021/09/28 04:57:58;;;;;;;15.75;12.95;;;;;;;15.49;100.00;101197.66;2615206;36;20042;-51
2021/09/28 05:00:25;;;;;;;16.70;13.02;;;;;;;15.47;100.00;101201.06;2616742;31;20581;-50
2021/09/28 05:02:52;;;;;;;17.20;13.40;;;;;;;15.46;100.00;101207.06;2615565;36;20559;-54
2021/09/28 05:05:19;;;;;;;17.90;12.48;;;;;;;15.45;100.00;101218.25;2618212;31;20061;-52
2021/09/28 05:07:47;;;;;;;14.20;11.57;;;;;;;15.41;100.00;101212.16;2615247;31;20062;-53
2021/09/28 05:10:14;;;;;;;13.75;11.55;;;;;;;15.39;100.00;101211.28;2616276;31;20081;-55
2021/09/28 05:12:41;;;;;;;14.35;10.63;;;;;;;15.37;100.00;101218.13;2615312;36;20039;-54
2021/09/28 05:15:09;;;;;;;15.77;10.85;;;;;;;15.33;100.00;101224.09;2616152;31;20030;-54
2021/09/28 05:17:38;;;;;;;13.45;9.55;;;;;;;15.26;100.00;101220.56;2615914;31;20057;-48
2021/09/28 05:20:06;;;;;;;11.35;9.95;;;;;;;15.24;100.00;101226.53;2616235;31;20034;-52
2021/09/28 05:22:33;;;;;;;10.27;8.73;;;;;;;15.19;100.00;101225.59;2615500;36;20052;-52
2021/09/28 05:25:03;;;;;;;12.00;8.32;;;;;;;15.15;100.00;101236.72;2615891;31;20434;-54
2021/09/28 05:27:31;;;;;;;11.23;7.78;;;;;;;15.12;100.00;101242.72;2620848;31;20041;-51
2021/09/28 05:29:58;;;;;;;7.78;7.00;;;;;;;15.13;100.00;101239.28;2615416;36;20035;-50
2021/09/28 05:32:26;;;;;;;8.93;7.03;;;;;;;15.14;100.00;101245.28;2615387;36;20059;-48
2021/09/28 05:34:53;;;;;;;9.98;6.50;;;;;;;15.16;100.00;101241.91;2615281;36;20038;-51
2021/09/28 05:37:20;;;;;;;11.20;6.55;;;;;;;15.20;100.00;101247.97;2615503;36;20034;-53
2021/09/28 05:39:50;;;;;;;9.00;5.55;;;;;;;15.22;100.00;101248.88;2615461;31;20034;-49
2021/09/28 05:42:18;;;;;;;5.80;4.78;;;;;;;15.27;100.00;101255.84;2614979;36;20019;-49
2021/09/28 05:44:45;;;;;;;6.15;4.25;;;;;;;15.31;100.00;101261.06;2615348;36;20034;-51
2021/09/28 05:47:15;;;;;;;5.45;3.97;;;;;;;15.35;100.00;101265.41;2615216;36;20034;-52
2021/09/28 05:49:45;;;;;;;4.90;3.22;;;;;;;15.37;100.00;101267.16;2615394;31;20041;-48
2021/09/28 05:52:14;;;;;;;4.95;2.97;;;;;;;15.47;100.00;101265.59;2615364;36;20158;-48
2021/09/28 05:54:49;;;;;;;4.38;2.92;;;;;;;15.49;100.00;101267.38;2615441;36;20022;-47
2021/09/28 05:57:21;;;;;;;5.85;2.53;;;;;;;15.57;100.00;101269.16;2614970;36;20527;-54
2021/09/28 05:59:49;;;;;;;3.63;2.75;;;;;;;15.58;100.00;101273.50;2614797;31;20605;-55
2021/09/28 06:02:18;;;;;;;6.97;2.97;;;;;;;15.60;100.00;101283.00;2613807;31;20602;-52
2021/09/28 06:04:46;;;;;;;3.97;1.90;;;;;;;15.74;100.00;101273.75;2614769;31;20031;-52
2021/09/28 06:07:16;;;;;;;3.60;2.25;;;;;;;15.92;100.00;101283.47;2614434;31;20026;-56
2021/09/28 06:09:44;;;;;;;3.28;1.67;;;;;;;15.99;100.00;101277.56;2611980;36;20046;-57
2021/09/28 06:12:13;;;;;;;3.22;1.73;;;;;;;16.00;100.00;101276.69;2614066;36;20034;-57
2021/09/28 06:14:42;;;;;;;6.88;1.88;;;;;;;15.92;100.00;101280.03;2614917;36;20137;-51
2021/09/28 06:17:10;;;;;;;3.38;2.08;;;;;;;15.97;100.00;101287.00;2614993;31;20030;-53
2021/09/28 06:19:38;;;;;;;4.57;2.15;;;;;;;15.98;100.00;101291.31;2615209;36;20071;-53
2021/09/28 06:22:06;;;;;;;4.63;2.33;;;;;;;15.79;100.00;101297.06;2614962;31;20506;-46
2021/09/28 06:24:34;;;;;;;5.95;1.50;;;;;;;15.86;100.00;101295.47;2615559;31;20022;-53
2021/09/28 06:27:04;;;;;;;3.30;2.00;;;;;;;15.95;100.00;101298.16;2616288;31;20053;-50
2021/09/28 06:29:36;;;;;;;7.10;2.45;;;;;;;15.88;100.00;101298.91;2614830;36;20434;-51
2021/09/28 06:32:03;;;;;;;3.53;1.90;;;;;;;15.94;100.00;101305.03;2617921;31;20037;-49
2021/09/28 06:34:31;;;;;;;5.35;1.95;;;;;;;15.93;100.00;101315.34;2615107;31;20030;-49
2021/09/28 06:36:58;;;;;;;2.35;1.73;;;;;;;15.93;100.00;101318.78;2614831;36;20031;-50
2021/09/28 06:39:25;;;;;;;4.95;1.65;;;;;;;15.94;100.00;101317.06;2614501;36;20131;-48
2021/09/28 06:41:52;;;;;;;2.72;1.85;;;;;;;15.87;100.00;101313.53;2614920;31;20031;-52
2021/09/28 06:44:19;;;;;;;5.38;1.80;;;;;;;15.85;100.00;101315.22;2615248;36;20030;-49
2021/09/28 06:46:46;;;;;;;3.42;1.63;;;;;;;15.86;100.00;101319.56;2612946;36;20030;-50
2021/09/28 06:49:14;;;;;;;4.63;1.70;;;;;;;15.87;100.00;101321.28;2614982;36;20018;-46
2021/09/28 06:51:41;;;;;;;3.03;1.67;;;;;;;15.75;100.00;101327.13;2616342;31;20037;-52
2021/09/28 06:54:08;;;;;;;3.33;2.13;;;;;;;15.77;100.00;101322.03;2614827;36;20026;-46
2021/09/28 06:56:35;;;;;;;4.25;1.90;;;;;;;15.83;100.00;101324.69;2614835;36;20037;-50
2021/09/28 06:59:07;;;;;;;2.92;1.55;;;;;;;15.91;100.00;101323.06;2615062;36;20037;-49
2021/09/28 07:01:41;;;;;;;3.90;1.52;;;;;;;16.03;100.00;101325.81;2615726;36;20467;-51
2021/09/28 07:04:09;;;;;;;7.00;2.58;;;;;;;15.99;100.00;101328.31;2614660;31;20038;-50
2021/09/28 07:06:36;;;;;;;5.47;1.95;;;;;;;16.10;100.00;101328.50;2614661;31;20022;-47
2021/09/28 07:09:04;;;;;;;5.55;2.40;;;;;;;16.12;100.00;101334.53;2615202;31;20042;-53
2021/09/28 07:11:34;;;;;;;3.95;1.42;;;;;;;15.99;100.00;101336.09;2615488;36;20462;-47
2021/09/28 07:14:04;;;;;;;3.90;1.63;;;;;;;16.02;100.00;101352.50;2614941;31;20038;-48
2021/09/28 07:16:32;;;;;;;5.30;1.88;;;;;;;15.90;100.00;101354.94;2614862;36;20031;-49
2021/09/28 07:18:59;;;;;;;4.35;1.60;;;;;;;15.91;100.00;101359.25;2614727;36;20670;-54
2021/09/28 07:21:30;;;;;;;8.38;2.00;;;;;;;15.93;100.00;101369.59;2616019;31;20053;-50
2021/09/28 07:24:05;;;;;;;4.53;2.37;;;;;;;15.96;100.00;101373.09;2614885;36;20100;-47
2021/09/28 07:26:33;;;;;;;6.10;1.75;;;;;;;15.81;100.00;101379.72;2614612;36;20271;-47
2021/09/28 07:29:01;;;;;;;7.60;2.33;;;;;;;15.77;100.00;101379.69;2614495;31;20150;-49
2021/09/28 07:31:28;;;;;;;5.75;1.25;;;;;;;15.91;100.00;101384.22;2614738;36;20039;-50
2021/09/28 07:33:57;;;;;;;8.48;1.92;;;;;;;15.88;100.00;101381.56;2614347;31;20326;-49
2021/09/28 07:36:24;;;;;;;6.05;1.70;;;;;;;16.04;100.00;101384.41;2614128;36;20037;-47
2021/09/28 07:38:52;;;;;;;5.15;2.15;;;;;;;16.17;100.00;101384.56;2614020;36;20605;-52
2021/09/28 07:41:19;;;;;;;6.47;1.60;;;;;;;16.16;100.00;101382.84;2615295;36;20038;-46
2021/09/28 07:43:46;;;;;;;6.43;1.95;;;;;;;16.16;100.00;101388.88;2615443;36;20026;-50
2021/09/28 07:46:16;;;;;;;6.65;1.63;;;;;;;16.24;100.00;101391.56;2615595;36;20030;-56
2021/09/28 07:48:48;;;;;;;5.85;1.60;;;;;;;16.16;100.00;101391.44;2615533;31;20558;-49
2021/09/28 07:51:15;;;;;;;8.93;1.77;;;;;;;16.07;100.00;101395.63;2616583;31;20040;-54
2021/09/28 07:53:46;;;;;;;8.77;2.00;;;;;;;16.03;100.00;101390.41;2617322;31;20042;-52
2021/09/28 07:56:13;;;;;;;5.38;1.70;;;;;;;16.02;100.00;101398.13;2615674;36;20061;-50
2021/09/28 07:58:40;;;;;;;5.72;1.52;;;;;;;16.03;100.00;101392.13;2616094;36;20033;-51
2021/09/28 08:01:11;;;;;;;7.03;2.45;;;;;;;15.99;100.00;101401.56;2615558;31;20037;-50
2021/09/28 08:03:41;;;;;;;7.07;2.10;;;;;;;16.02;100.00;101398.13;2614601;36;20653;-48
2021/09/28 08:06:09;;;;;;;7.55;1.90;;;;;;;16.07;100.00;101395.63;2614902;36;20030;-59
2021/09/28 08:08:36;;;;;;;7.90;2.28;;;;;;;16.12;100.00;101401.72;2615295;36;20030;-59
2021/09/28 08:11:07;;;;;;;5.65;2.63;;;;;;;16.20;100.00;101405.28;2614513;36;20692;-54
2021/09/28 08:13:35;;;;;;;6.18;3.42;;;;;;;16.28;100.00;101411.44;2614609;31;20046;-59
2021/09/28 08:16:03;;;;;;;10.57;5.10;;;;;;;16.33;100.00;101412.38;2613824;36;20196;-59
2021/09/28 08:18:30;;;;;;;6.80;4.05;;;;;;;16.24;100.00;101417.41;2612976;36;20065;-56
2021/09/28 08:20:57;;;;;;;12.15;5.28;;;;;;;16.19;100.00;101424.22;2613599;31;20048;-58
2021/09/28 08:23:25;;;;;;;13.48;6.70;;;;;;;16.32;100.00;101431.31;2614652;31;20038;-57
2021/09/28 08:31:10;;;;;;;3.75;2.42;;;;;;;16.05;100.00;101439.53;2578275;36;2004568;-56
2021/09/28 08:33:38;;;;;;;7.05;2.15;;;;;;;16.15;100.00;101437.94;2615352;31;20556;-55
2021/09/28 08:36:07;;;;;;;8.48;2.75;;;;;;;16.27;100.00;101446.75;2613756;36;20045;-54
2021/09/28 08:38:37;;;;;;;5.50;1.80;;;;;;;16.11;100.00;101447.38;2615082;31;20030;-58
2021/09/28 08:41:04;;;;;;;5.57;2.20;;;;;;;15.94;100.00;101454.84;2616111;31;20554;-55
2021/09/28 08:43:31;;;;;;;8.18;2.42;;;;;;;15.73;100.00;101445.06;2614952;36;20034;-58
2021/09/28 08:45:58;;;;;;;7.75;2.47;;;;;;;15.77;100.00;101462.34;2617309;31;20455;-57
2021/09/28 08:48:28;;;;;;;7.05;2.30;;;;;;;15.69;100.00;101460.47;2615505;36;20151;-58
2021/09/28 08:50:56;;;;;;;8.45;2.63;;;;;;;15.74;100.00;101461.41;2617581;31;20478;-59
2021/09/28 08:53:23;;;;;;;9.10;3.38;;;;;;;15.60;100.00;101463.72;2616385;31;20609;-57
2021/09/28 08:55:50;;;;;;;7.13;2.80;;;;;;;15.53;100.00;101455.00;2615979;36;20412;-57
2021/09/28 08:58:23;;;;;;;8.40;3.33;;;;;;;15.53;100.00;101452.44;2617269;31;20446;-56
2021/09/28 09:00:54;;;;;;;9.63;3.42;;;;;;;15.49;100.00;101447.19;2616552;31;20130;-56
2021/09/28 09:03:32;;;;;;;11.93;4.55;;;;;;;15.42;100.00;101455.66;2579813;36;2004477;-56
2021/09/28 09:06:02;;;;;;;12.32;3.67;;;;;;;15.40;100.00;101465.97;2615279;36;20048;-60
2021/09/28 09:08:35;;;;;;;9.80;4.10;;;;;;;15.29;100.00;101468.31;2615155;36;20030;-58
2021/09/28 09:11:13;;;;;;;7.30;3.08;;;;;;;15.09;100.00;101468.78;2615503;31;20038;-58
2021/09/28 09:13:50;;;;;;;8.80;4.05;;;;;;;15.02;100.00;101470.34;2615182;31;20434;-56
2021/09/28 09:16:18;;;;;;;9.93;3.78;;;;;;;14.82;100.00;101469.97;2615253;36;20030;-57
2021/09/28 09:19:08;;;;;;;9.18;4.60;;;;;;;14.82;100.00;101467.38;2614726;36;20038;-54
2021/09/28 09:21:48;;;;;;;9.80;5.05;;;;;;;14.80;100.00;101468.22;2579315;36;2004598;-56
2021/09/28 09:24:49;;;;;;;15.93;4.70;;;;;;;14.76;100.00;101475.00;2615339;31;20026;-58
2021/09/28 09:27:28;;;;;;;7.07;4.13;;;;;;;14.87;100.00;101476.09;2579471;31;2004583;-57
2021/09/28 09:30:31;;;;;;;8.63;4.05;;;;;;;14.98;100.00;101478.91;2579586;31;2004559;-56
2021/09/28 09:32:59;;;;;;;8.30;3.58;;;;;;;14.96;100.00;101472.81;2578687;31;2004583;-56
2021/09/28 09:35:33;;;;;;;6.05;3.58;;;;;;;15.10;100.00;101476.56;2615552;31;20053;-55
2021/09/28 09:38:11;;;;;;;9.38;4.22;;;;;;;15.17;100.00;101482.72;2614338;36;20036;-58
2021/09/28 09:40:44;;;;;;;9.63;3.90;;;;;;;15.23;100.00;101483.69;2615544;31;20031;-59
2021/09/28 09:43:13;;;;;;;6.20;3.95;;;;;;;15.27;100.00;101477.75;2616141;31;20480;-58
2021/09/28 14:07:10;;;;;;;7.63;2.95;;;;;;;19.83;100.00;101469.34;2611864;36;20026;-45
2021/09/28 14:09:37;;;;;;;7.13;2.50;;;;;;;19.31;100.00;101465.75;2616341;31;20042;-48
2021/09/28 14:12:08;;;;;;;12.32;2.90;;;;;;;18.25;100.00;101460.09;2614780;31;20035;-52
2021/09/28 14:14:36;;;;;;;5.75;3.03;;;;;;;17.95;100.00;101458.16;2613910;36;20515;-48
2021/09/28 14:17:03;;;;;;;10.88;3.30;;;;;;;17.54;100.00;101461.22;2615494;36;20038;-47
2021/09/28 14:19:31;;;;;;;9.70;2.90;;;;;;;17.42;100.00;101455.91;2616261;31;20572;-49
2021/09/28 14:21:58;;;;;;;6.25;3.55;;;;;;;17.12;100.00;101455.63;2615974;36;20034;-49
2021/09/28 14:24:28;;;;;;;14.20;3.85;;;;;;;16.89;100.00;101458.81;2616440;31;20045;-44
2021/09/28 14:26:56;;;;;;;8.23;3.47;;;;;;;16.73;100.00;101467.22;2615393;36;20018;-47
2021/09/28 14:29:23;;;;;;;9.65;3.60;;;;;;;16.83;100.00;101456.16;2615177;36;20138;-49
2021/09/28 14:31:50;;;;;;;10.20;3.67;;;;;;;17.11;100.00;101456.47;2615224;36;20038;-52
2021/09/28 14:34:17;;;;;;;10.55;3.72;;;;;;;17.01;100.00;101456.38;2615610;31;20073;-48
2021/09/28 14:36:44;;;;;;;10.68;3.90;;;;;;;17.06;100.00;101453.84;2615920;31;20038;-51
2021/09/28 14:39:12;;;;;;;8.55;3.00;;;;;;;17.44;100.00;101451.66;2615448;36;20187;-52
2021/09/28 14:41:40;;;;;;;8.32;3.03;;;;;;;17.36;100.00;101458.47;2615057;36;20065;-49
2021/09/28 14:44:07;;;;;;;7.95;3.28;;;;;;;17.49;100.00;101460.31;2615642;36;20030;-48
2021/09/28 14:46:35;;;;;;;7.53;3.30;;;;;;;17.54;100.00;101458.63;2615602;31;20053;-49
2021/09/28 14:49:03;;;;;;;6.53;2.83;;;;;;;17.24;100.00;101458.31;2615584;36;20034;-50
2021/09/28 14:51:30;;;;;;;9.40;3.38;;;;;;;17.07;100.00;101459.88;2615417;36;20058;-52
2021/09/28 14:53:57;;;;;;;8.50;3.58;;;;;;;17.13;100.00;101458.22;2615388;31;20034;-48
2021/09/28 14:56:24;;;;;;;13.40;3.80;;;;;;;16.94;100.00;101458.88;2615434;31;20026;-48
2021/09/28 14:58:52;;;;;;;9.43;3.75;;;;;;;17.23;100.00;101461.78;2615235;36;20034;-50
2021/09/28 15:01:19;;;;;;;8.40;3.30;;;;;;;17.18;100.00;101464.31;2615455;31;20470;-51
2021/09/28 15:03:46;;;;;;;9.38;3.75;;;;;;;17.20;100.00;101459.16;2616556;36;25603;-48
2021/09/28 15:06:32;;;;;;;7.32;3.88;;;;;;;17.16;100.00;101459.97;2580822;31;2004830;-48
2021/09/28 15:09:00;;;;;;;6.95;3.55;;;;;;;17.39;100.00;101455.03;2616772;31;20621;-47
2021/09/28 15:11:27;;;;;;;7.28;3.53;;;;;;;17.20;100.00;101454.00;2616500;36;20030;-52
2021/09/28 15:13:54;;;;;;;9.20;4.25;;;;;;;17.11;100.00;101452.16;2616013;31;20034;-52
2021/09/28 15:16:21;;;;;;;7.53;3.47;;;;;;;17.26;100.00;101456.63;2616693;31;20031;-47
2021/09/28 15:18:49;;;;;;;8.55;3.85;;;;;;;17.15;100.00;101453.94;2615040;36;20670;-51
2021/09/28 15:21:17;;;;;;;6.78;3.38;;;;;;;17.07;100.00;101463.34;2615846;31;20065;-51
2021/09/28 15:23:45;;;;;;;8.77;3.40;;;;;;;16.92;100.00;101464.03;2614736;36;20022;-50
2021/09/28 15:26:12;;;;;;;10.23;3.63;;;;;;;16.91;100.00;101461.41;2615435;36;20066;-52
2021/09/28 15:28:40;;;;;;;9.07;3.63;;;;;;;16.79;100.00;101460.41;2614649;36;20057;-50
2021/09/28 15:31:07;;;;;;;8.52;3.80;;;;;;;16.77;100.00;101463.81;2615500;36;20030;-48
2021/09/28 15:33:35;;;;;;;7.22;4.20;;;;;;;16.83;100.00;101456.16;2618327;31;20475;-48
2021/09/28 15:36:02;;;;;;;7.93;3.20;;;;;;;16.85;100.00;101456.16;2615264;36;20085;-51
2021/09/28 15:38:49;;;;;;;6.28;3.40;;;;;;;16.83;100.00;101456.16;2615757;36;20057;-51
2021/09/28 15:41:18;;;;;;;11.05;3.78;;;;;;;16.63;100.00;101445.50;2616035;31;20026;-49
2021/09/28 15:43:46;;;;;;;5.95;3.58;;;;;;;16.53;100.00;101451.41;2615325;36;20035;-48